EST,Max TemperatureF,Mean TemperatureF,Min TemperatureF,Max Dew PointF,MeanDew PointF,Min DewpointF,Max Humidity, Mean Humidity, Min Humidity, Max Sea Level PressureIn, Mean Sea Level PressureIn, Min Sea Level PressureIn, Max VisibilityMiles, Mean VisibilityMiles, Min VisibilityMiles, Max Wind SpeedMPH, Mean Wind SpeedMPH, Max Gust SpeedMPH,PrecipitationIn, CloudCover, Events, WindDirDegrees
2012-12-1,54,44,34,46,38,33,96,82,68,30.30,30.19,30.04,10,8,4,17,7,31,0.00,5,,126
2012-12-2,57,52,48,54,51,45,100,91,72,30.14,29.99,29.93,10,8,2,18,10,26,0.16,8,Rain,231
2012-12-3,60,51,43,57,46,28,100,84,35,30.15,30.07,29.94,10,4,0,22,6,30,0.01,7,Fog,150
2012-12-4,60,52,43,54,46,33,94,79,65,30.12,29.99,29.92,10,8,2,14,11,24,0.22,5,Rain,251
2012-12-5,41,34,28,30,22,18,75,63,48,30.42,30.34,30.14,10,10,10,14,8,20,0.00,1,,350
2012-12-6,39,32,26,32,27,21,88,77,67,30.38,30.19,30.00,10,10,10,12,4,16,0.00,2,,168
2012-12-7,43,40,37,41,38,32,96,90,77,29.99,29.94,29.89,10,5,2,8,3,,0.04,8,Rain,177
2012-12-8,41,38,35,41,36,29,100,89,78,30.19,29.96,29.83,10,7,2,13,7,16,0.10,8,Rain,15
2012-12-9,37,35,33,36,32,27,100,87,70,30.21,29.98,29.65,10,7,0,17,8,25,0.03,8,Fog-Rain,57
2012-12-10,41,37,32,39,33,21,100,85,64,29.88,29.68,29.60,10,7,1,15,5,20,0.01,8,Rain,297
2012-12-11,35,31,27,25,21,18,75,66,56,30.18,30.04,29.89,10,10,10,16,7,23,0.00,5,,255
2012-12-12,43,34,26,28,24,22,84,70,47,30.40,30.33,30.20,10,10,9,12,9,,0.00,0,,221
2012-12-13,43,35,27,30,26,24,89,70,49,30.41,30.32,30.19,10,10,10,13,6,22,0.00,0,,203
2012-12-14,46,39,32,32,29,25,92,72,54,30.27,30.23,30.18,10,9,6,12,6,,0.00,0,,228
2012-12-15,45,38,30,40,33,28,100,90,63,30.20,30.06,29.73,10,4,0,13,3,23,0.03,4,Fog-Rain,113
2012-12-16,52,49,46,49,46,39,100,88,76,29.70,29.65,29.61,10,8,2,15,9,20,0.32,8,Rain,226
2012-12-17,44,42,39,39,35,32,82,77,71,29.75,29.69,29.63,10,10,10,14,8,21,0.00,8,,271
2012-12-18,42,38,35,33,30,27,83,72,55,29.78,29.73,29.63,10,10,8,13,6,17,0.00,5,,270
2012-12-19,39,36,32,36,32,29,93,84,75,30.16,30.00,29.75,9,7,5,6,2,,0.00,6,,304
2012-12-20,46,40,35,41,36,32,93,85,76,30.10,29.51,29.19,10,8,2,24,14,36,0.51,8,Rain-Snow,143
2012-12-21,35,32,28,34,28,20,100,88,61,29.84,29.40,29.20,10,7,2,22,12,38,0.03,8,Snow,293
2012-12-22,33,32,28,25,21,19,85,66,56,30.09,30.01,29.88,10,10,10,20,14,34,0.00,5,,290
2012-12-23,37,30,23,24,20,19,89,71,54,30.06,29.98,29.91,10,10,8,10,6,,0.00,3,,299
2012-12-24,33,30,26,28,25,18,100,82,69,30.04,29.93,29.83,10,8,2,12,7,,0.03,7,Snow,39
2012-12-25,32,28,24,27,24,21,96,81,66,30.33,30.23,30.02,10,10,10,10,6,,0.00,6,,2
2012-12-26,30,28,26,27,24,21,100,87,69,30.28,29.96,29.84,10,4,0,20,13,29,0.24,8,Fog-Snow,32
2012-12-27,32,24,15,30,24,14,100,87,59,30.19,30.00,29.84,10,7,2,13,7,21,0.01,5,Snow,347
2012-12-28,28,20,12,26,19,10,100,87,74,30.94,30.23,29.96,10,8,2,6,1,,0.00,5,Snow,43
2012-12-29,30,28,24,27,24,18,100,89,75,30.06,29.88,29.80,10,5,1,10,6,18,0.07,8,Snow,355
2012-12-30,30,24,19,25,21,15,93,82,72,30.32,30.25,30.05,10,9,2,15,8,22,0.00,6,Snow,252
2012-12-31,35,27,19,27,22,16,85,73,64,30.20,30.02,29.94,10,10,8,17,12,24,0.00,5,,244